Condiciones actuales en los principales Aeropuertos de España-Datos Metar

 

LEAL - Alicante
Actualización: 21/02/2018 05:30
Despejado
Despejado
 Viento del ONO
Viento: ONO 24 km/h
Temperatura: 11°C
Rocío: 1°C
Humedad: 50%
Barómetro: 1007 hPa
Resumen: Despejado
Visibilidad: greater than 10 km
2018/02/21 04:30 LEAL 210430Z 30013KT CAVOK 11/01 Q1007 NOSIG
LEAB - Albacete
Actualización: 21/02/2018 05:00
Despejado
Despejado
 Viento del ONO
Viento: ONO 19 km/h
Temperatura: 2°C
Wind Chill: -2°C
Rocío: -1°C
Humedad: 81%
Barómetro: 1010 hPa
Resumen: Despejado
Visibilidad: greater than 10 km
2018/02/21 04:00 LEAB 210400Z 30010KT CAVOK 02/M01 Q1010 NOSIG
LEAM - Almería
Actualización: 21/02/2018 05:30
Mist, Parcialmente nublado
Mist, Parcialmente nublado
 Viento del NNO
Viento: NNO 6 km/h
Temperatura: 10°C
Rocío: 9°C
Humedad: 94%
Barómetro: 1007 hPa
Resumen: Mist
Nubosidad: Partly Cloudy
Visibilidad: 4 km
Cloud details: Partly Cloudy 305 m
2018/02/21 04:30 LEAM 210430Z 33003KT 4000 BR SCT010 10/09 Q1007
 
LEAS - Asturias/Aviles
Actualización: 21/02/2018 05:30
Mostly Cloudy
Mostly Cloudy
 Viento del varies
Viento: varies 2 km/h
Temperatura: 9°C
Rocío: 5°C
Humedad: 76%
Barómetro: 1021 hPa
Nubosidad: Mostly Cloudy
Visibilidad: 7 km
Cloud details: Few Clouds 884 m
Partly Cloudy 1219 m
Mostly Cloudy 1463 m
2018/02/21 04:30 LEAS 210430Z AUTO VRB01KT 7000 FEW029/// SCT040/// BKN048/// 09/05 Q1021
LEBZ - Badajoz/Talavera la Real
Actualización: 20/02/2018 21:00
NO Actualizado
Despejado
Despejado
 Viento del N
Viento: N 11 km/h
Temperatura: 13°C
Rocío: 3°C
Humedad: 51%
Barómetro: 1015 hPa
Resumen: Despejado
Visibilidad: greater than 10 km
2018/02/20 20:00 LEBZ 202000Z 36006KT CAVOK 13/03 Q1015
LEBL - Barcelona
Actualización: 21/02/2018 05:30
Partly Cloudy
Partly Cloudy
 Viento del NNO
Viento: NNO 20 km/h
Temperatura: 9°C
Wind Chill: 6°C
Rocío: 4°C
Humedad: 71%
Barómetro: 1007 hPa
Nubosidad: Partly Cloudy
Visibilidad: 10 km
Cloud details: Few Clouds 610 m
Partly Cloudy 914 m
2018/02/21 04:30 LEBL 210430Z 33011KT 9999 FEW020 SCT030 09/04 Q1007 NOSIG
 
LEBB - Bilbao
Actualización: 21/02/2018 05:30
Mostly Cloudy
Mostly Cloudy
 Viento del N
Viento: N 19 km/h
Temperatura: 9°C
Wind Chill: 6°C
Rocío: 4°C
Humedad: 71%
Barómetro: 1019 hPa
Nubosidad: Mostly Cloudy
Visibilidad: 10 km
Cloud details: Partly Cloudy 1067 m
Mostly Cloudy 1768 m
2018/02/21 04:30 LEBB 210430Z 01010KT 340V040 9999 SCT035 BKN058 09/04 Q1019 NOSIG
LEBG - Burgos/Villafría
Actualización: 21/02/2018 05:30
Mostly Cloudy
Mostly Cloudy
 Viento del N
Viento: N 24 km/h
Temperatura: 3°C
Wind Chill: -2°C
Rocío: 1°C
Humedad: 87%
Barómetro: 1014 hPa
Nubosidad: Mostly Cloudy
Visibilidad: 10 km
Cloud details: Mostly Cloudy 488 m
Mostly Cloudy 671 m
Mostly Cloudy 1341 m
2018/02/21 04:30 LEBG 210430Z AUTO 36013KT 9999 BKN016/// BKN022/// BKN044/// 03/01 Q1014
LEBA - Córdoba
Actualización: 21/02/2018 05:30
Despejado
Despejado
 Viento del varies
Viento: varies 2 km/h
Temperatura: 5°C
Rocío: 2°C
Humedad: 81%
Barómetro: 1011 hPa
Nubosidad: Despejado
Visibilidad: 10 km
2018/02/21 04:30 LEBA 210430Z AUTO VRB01KT 9999 NCD 05/02 Q1011
 
LEGE - Gerona
Actualización: 21/02/2018 05:30
Few Clouds
Few Clouds
 Viento del NE
Viento: NE 24 km/h
Temperatura: 8°C
Wind Chill: 4°C
Rocío: 5°C
Humedad: 82%
Barómetro: 1006 hPa
Nubosidad: Few Clouds
Visibilidad: 9 km
Cloud details: Few Clouds 1219 m
2018/02/21 04:30 LEGE 210430Z 05013KT 9000 FEW040 08/05 Q1006
LEGR - Granada
Actualización: 21/02/2018 05:30
Despejado
Despejado
 Viento del N
Viento: N 7 km/h
Temperatura: 6°C
Wind Chill: 4°C
Rocío: 2°C
Humedad: 76%
Barómetro: 1010 hPa
Nubosidad: Despejado
Visibilidad: 10 km
2018/02/21 04:30 LEGR 210430Z AUTO 01004KT 9999 NCD 06/02 Q1010
GCHI - Hierro
Actualización: 21/02/2018 05:30
Mostly Cloudy
Mostly Cloudy
 Viento del NNE
Viento: NNE 26 km/h
Temperatura: 17°C
Rocío: 12°C
Humedad: 73%
Barómetro: 1016 hPa
Nubosidad: Mostly Cloudy
Visibilidad: 10 km
Cloud details: Mostly Cloudy 823 m
2018/02/21 04:30 GCHI 210430Z AUTO 02014KT 350V050 9999 BKN027/// 17/12 Q1016
 
LEIB - Ibiza
Actualización: 21/02/2018 00:00
NO Actualizado
Despejado
Despejado
 Viento del O
Viento: O 6 km/h
Temperatura: 12°C
Rocío: 6°C
Humedad: 67%
Barómetro: 1010 hPa
Resumen: Despejado
Visibilidad: greater than 10 km
2018/02/20 23:00 LEIB 202300Z 26003KT 210V330 CAVOK 12/06 Q1010 NOSIG
LEJR - Jerez de la Frontera
Actualización: 21/02/2018 06:00
Despejado
Despejado
 Viento del NNO
Viento: NNO 13 km/h
Temperatura: 8°C
Wind Chill: 6°C
Rocío: 4°C
Humedad: 76%
Barómetro: 1009 hPa
Resumen: Despejado
Visibilidad: greater than 10 km
2018/02/21 05:00 LEJR 210500Z 33007KT CAVOK 08/04 Q1009
LECO - A Coruña
Actualización: 21/02/2018 05:30
Cubierto
Cubierto
 Viento del NE
Viento: NE 11 km/h
Temperatura: 8°C
Wind Chill: 6°C
Rocío: 4°C
Humedad: 76%
Barómetro: 1021 hPa
Nubosidad: Cubierto
Visibilidad: 10 km
Cloud details: Cubierto 1189 m
2018/02/21 04:30 LECO 210430Z 04006KT 010V070 9999 OVC039 08/04 Q1021 NOSIG
 
GCLA - La Palma
Actualización: 21/02/2018 05:30
Despejado
Despejado
 Viento del NO
Viento: NO 9 km/h
Temperatura: 16°C
Rocío: 10°C
Humedad: 68%
Barómetro: 1016 hPa
Nubosidad: Despejado
Visibilidad: 10 km
2018/02/21 04:30 GCLA 210430Z AUTO 32005KT 280V010 9999 NCD 16/10 Q1016
GCRR - Lanzarote
Actualización: 21/02/2018 02:00
NO Actualizado
Few Clouds
Few Clouds
 Viento del NNO
Viento: NNO 7 km/h
Temperatura: 15°C
Rocío: 11°C
Humedad: 77%
Barómetro: 1015 hPa
Nubosidad: Few Clouds
Visibilidad: 10 km
Cloud details: Few Clouds 1067 m
2018/02/21 01:00 GCRR 210100Z 34004KT 9999 FEW035 15/11 Q1015
GCLP - Las Palmas
Actualización: 21/02/2018 05:30
Mostly Cloudy
Mostly Cloudy
 Viento del NNO
Viento: NNO 17 km/h
Temperatura: 16°C
Rocío: 11°C
Humedad: 72%
Barómetro: 1015 hPa
Nubosidad: Mostly Cloudy
Visibilidad: 10 km
Cloud details: Few Clouds 1219 m
Mostly Cloudy 1829 m
2018/02/21 04:30 GCLP 210430Z 33009KT 9999 FEW040 BKN060 16/11 Q1015 NOSIG
 
LELN - León
Actualización: 20/02/2018 23:00
NO Actualizado
Despejado
Despejado
 Viento del O
Viento: O 15 km/h
Temperatura: 5°C
Wind Chill: 2°C
Rocío: 1°C
Humedad: 76%
Barómetro: 1019 hPa
Resumen: Despejado
Visibilidad: greater than 10 km
2018/02/20 22:00 LELN 202200Z 28008KT CAVOK 05/01 Q1019
LELO - Logroño
Actualización: 20/02/2018 23:00
NO Actualizado
Mostly Cloudy
Mostly Cloudy
 Viento del O
Viento: O 22 km/h
Temperatura: 7°C
Wind Chill: 4°C
Rocío: 5°C
Humedad: 87%
Barómetro: 1018 hPa
Nubosidad: Mostly Cloudy
Visibilidad: 10 km
Cloud details: Mostly Cloudy 884 m
2018/02/20 22:00 LELO 202200Z 27012KT 9999 BKN029 07/05 Q1018
LECV - Madrid/Colmenar
Actualización: 20/02/2018 19:00
NO Actualizado
Few Clouds
Few Clouds
 Viento del N
Viento: N 17 km/h, Racha: 43 km/h
Temperatura: 8°C
Wind Chill: 5°C
Rocío: -1°C
Humedad: 53%
Barómetro: 1016 hPa
Nubosidad: Few Clouds
Visibilidad: 10 km
Cloud details: Few Clouds 1219 m
2018/02/20 18:00 LECV 201800Z 01009G23KT 9999 FEW040 08/M01 Q1016
 
LEMD - Madrid/Barajas
Actualización: 21/02/2018 05:30
Despejado
Despejado
 Viento del NNE
Viento: NNE 19 km/h
Temperatura: 8°C
Wind Chill: 4°C
Rocío: 0°C
Humedad: 57%
Barómetro: 1012 hPa
Resumen: Despejado
Visibilidad: greater than 10 km
2018/02/21 04:30 LEMD 210430Z 02010KT 340V060 CAVOK 08/00 Q1012 NOSIG
LEVS - Madrid/Cuatro Vientos
Actualización: 20/02/2018 21:30
NO Actualizado
Despejado
Despejado
 Viento del N
Viento: N 7 km/h
Temperatura: 10°C
Wind Chill: 9°C
Rocío: 1°C
Humedad: 54%
Barómetro: 1016 hPa
Resumen: Despejado
Visibilidad: greater than 10 km
2018/02/20 20:30 LEVS 202030Z 01004KT 330V070 CAVOK 10/01 Q1016
LEGT - Madrid/Getafe
Actualización: 20/02/2018 23:00
NO Actualizado
Despejado
Despejado
 Viento del NE
Viento: NE 11 km/h
Temperatura: 8°C
Wind Chill: 6°C
Rocío: 0°C
Humedad: 57%
Barómetro: 1015 hPa
Resumen: Despejado
Visibilidad: greater than 10 km
2018/02/20 22:00 LEGT 202200Z 04006KT CAVOK 08/00 Q1015
 
LETO - Madrid/Torrejón
Actualización: 21/02/2018 05:00
Despejado
Despejado
 Viento del N
Viento: N 17 km/h
Temperatura: 6°C
Wind Chill: 3°C
Rocío: 1°C
Humedad: 71%
Barómetro: 1012 hPa
Resumen: Despejado
Visibilidad: greater than 10 km
2018/02/21 04:00 LETO 210400Z 35009KT 320V020 CAVOK 06/01 Q1012 NOSIG
LEMG - Málaga
Actualización: 21/02/2018 05:30
Despejado
Despejado
 Viento del O
Viento: O 26 km/h
Temperatura: 15°C
Rocío: 4°C
Humedad: 48%
Barómetro: 1008 hPa
Resumen: Despejado
Visibilidad: greater than 10 km
2018/02/21 04:30 LEMG 210430Z 27014KT CAVOK 15/04 Q1008 NOSIG
GEML - Melilla
Actualización: 21/02/2018 05:30
Despejado
Despejado
 Viento del calm
Viento: Calma
Temperatura: 10°C
Rocío: 6°C
Humedad: 76%
Barómetro: 1008 hPa
Resumen: Despejado
Visibilidad: greater than 10 km
2018/02/21 04:30 GEML 210430Z AUTO 00000KT CAVOK 10/06 Q1008
 
LEMH - Mahón
Actualización: 21/02/2018 05:30
Partly Cloudy
Partly Cloudy
 Viento del NNE
Viento: NNE 28 km/h
Temperatura: 9°C
Wind Chill: 6°C
Rocío: 3°C
Humedad: 66%
Barómetro: 1006 hPa
Nubosidad: Partly Cloudy
Visibilidad: 8 km
2018/02/21 04:30 LEMH 210430Z AUTO 02015KT 8000 NSC 09/03 Q1006
LEMO - Morón de La Frontera
Actualización: 21/02/2018 06:00
Despejado
Despejado
 Viento del NNE
Viento: NNE 11 km/h
Temperatura: 6°C
Wind Chill: 4°C
Rocío: 3°C
Humedad: 81%
Barómetro: 1010 hPa
Resumen: Despejado
Visibilidad: greater than 10 km
2018/02/21 05:00 LEMO 210500Z 03006KT CAVOK 06/03 Q1010 NOSIG
LERI - Murcia/Alcantarilla
Actualización: 20/02/2018 19:00
NO Actualizado
Partly Cloudy
Partly Cloudy
 Viento del NO
Viento: NO 15 km/h
Temperatura: 18°C
Rocío: 4°C
Humedad: 40%
Barómetro: 1011 hPa
Nubosidad: Partly Cloudy
Visibilidad: 10 km
Cloud details: Partly Cloudy 1829 m
2018/02/20 18:00 LERI 201800Z 32008KT 9999 SCT060 18/04 Q1011 NOSIG
 
LELC - Murcia/San Javier
Actualización: 20/02/2018 22:00
NO Actualizado
Few Clouds
Few Clouds
 Viento del ONO
Viento: ONO 9 km/h
Temperatura: 17°C
Rocío: 5°C
Humedad: 45%
Barómetro: 1010 hPa
Nubosidad: Few Clouds
Visibilidad: 10 km
Cloud details: Few Clouds 1524 m
2018/02/20 21:00 LELC 202100Z 30005KT 270V330 9999 FEW050 17/05 Q1010 NOSIG
LEPA - Palma de Mallorca
Actualización: 21/02/2018 05:30
Lluvia débil, Muy nuboso
Lluvia débil, Muy nuboso
 Viento del E
Viento: E 6 km/h
Temperatura: 10°C
Rocío: 9°C
Humedad: 94%
Barómetro: 1007 hPa
Resumen: Light Rain
Nubosidad: Mostly Cloudy
Visibilidad: 7 km
Cloud details: Few Clouds 610 m
Partly Cloudy 1067 m
Mostly Cloudy 1372 m
2018/02/21 04:30 LEPA 210430Z 09003KT 050V120 7000 -RA FEW020 SCT035 BKN045 10/09 Q1007 RERA NOSIG
LEPP - Pamplona
Actualización: 21/02/2018 05:30
Lluvia débil, Muy nuboso
Lluvia débil, Muy nuboso
 Viento del NNO
Viento: NNO 31 km/h, Racha: 52 km/h
Temperatura: 4°C
Wind Chill: -2°C
Rocío: 3°C
Humedad: 93%
Barómetro: 1013 hPa
Resumen: Light Rain
Nubosidad: Mostly Cloudy
Visibilidad: 10 km
Cloud details: Few Clouds 366 m
Mostly Cloudy 853 m
2018/02/21 04:30 LEPP 210430Z 34017G28KT 310V020 9999 -RA FEW012 BKN028 04/03 Q1013
 
LERS - Reus
Actualización: 21/02/2018 05:30
Despejado
Despejado
 Viento del varies
Viento: varies 2 km/h
Temperatura: 9°C
Rocío: 4°C
Humedad: 71%
Barómetro: 1006 hPa
Resumen: Despejado
Visibilidad: greater than 10 km
2018/02/21 04:30 LERS 210430Z AUTO VRB01KT CAVOK 09/04 Q1006
LERT - Rota
Actualización: 21/02/2018 05:00
Despejado
Despejado
 Viento del N
Viento: N 13 km/h
Temperatura: 9°C
Wind Chill: 7°C
Rocío: 6°C
Humedad: 82%
Barómetro: 1010 hPa
Resumen: Despejado
Visibilidad: greater than 10 km
2018/02/21 04:00 LERT 210400Z 01007KT 340V050 CAVOK 09/06 Q1010 NOSIG
LELL - Sabadell
Actualización: 21/02/2018 05:30
Despejado
Despejado
 Viento del calm
Viento: Calma
Temperatura: 6°C
Rocío: 4°C
Humedad: 87%
Barómetro: 1007 hPa
Resumen: Despejado
Visibilidad: greater than 10 km
2018/02/21 04:30 LELL 210430Z AUTO 00000KT CAVOK 06/04 Q1007
 
LESA - Salamanca
Actualización: 20/02/2018 19:30
NO Actualizado
Few Clouds
Few Clouds
 Viento del E
Viento: E 13 km/h
Temperatura: 8°C
Wind Chill: 6°C
Rocío: 0°C
Humedad: 57%
Barómetro: 1019 hPa
Nubosidad: Few Clouds
Visibilidad: 10 km
Cloud details: Few Clouds 1463 m
2018/02/20 18:30 LESA 201830Z 10007KT 9999 FEW048 08/00 Q1019
LESO - San Sebastián
Actualización: 21/02/2018 05:30
Mostly Cloudy
Mostly Cloudy
 Viento del N
Viento: N 17 km/h
Temperatura: 9°C
Wind Chill: 7°C
Rocío: 5°C
Humedad: 76%
Barómetro: 1017 hPa
Nubosidad: Mostly Cloudy
Visibilidad: 10 km
Cloud details: Mostly Cloudy 914 m
Mostly Cloudy 1524 m
2018/02/21 04:30 LESO 210430Z 01009KT 320V050 9999 BKN030 BKN050 09/05 Q1017
LEXJ - Santander
Actualización: 21/02/2018 05:30
Partly Cloudy
Partly Cloudy
 Viento del NNE
Viento: NNE 20 km/h
Temperatura: 10°C
Wind Chill: 7°C
Rocío: 4°C
Humedad: 67%
Barómetro: 1020 hPa
Nubosidad: Partly Cloudy
Visibilidad: 10 km
Cloud details: Few Clouds 914 m
Partly Cloudy 1585 m
2018/02/21 04:30 LEXJ 210430Z 02011KT 350V050 9999 FEW030 SCT052 10/04 Q1020
 
LEPA - Palma de Mallorca
Actualización: 21/02/2018 05:30
Lluvia débil, Muy nuboso
Lluvia débil, Muy nuboso
 Viento del E
Viento: E 6 km/h
Temperatura: 10°C
Rocío: 9°C
Humedad: 94%
Barómetro: 1007 hPa
Resumen: Light Rain
Nubosidad: Mostly Cloudy
Visibilidad: 7 km
Cloud details: Few Clouds 610 m
Partly Cloudy 1067 m
Mostly Cloudy 1372 m
2018/02/21 04:30 LEPA 210430Z 09003KT 050V120 7000 -RA FEW020 SCT035 BKN045 10/09 Q1007 RERA NOSIG
LEPP - Pamplona
Actualización: 21/02/2018 05:30
Lluvia débil, Muy nuboso
Lluvia débil, Muy nuboso
 Viento del NNO
Viento: NNO 31 km/h, Racha: 52 km/h
Temperatura: 4°C
Wind Chill: -2°C
Rocío: 3°C
Humedad: 93%
Barómetro: 1013 hPa
Resumen: Light Rain
Nubosidad: Mostly Cloudy
Visibilidad: 10 km
Cloud details: Few Clouds 366 m
Mostly Cloudy 853 m
2018/02/21 04:30 LEPP 210430Z 34017G28KT 310V020 9999 -RA FEW012 BKN028 04/03 Q1013
LEST - Santiago de Compostela
Actualización: 21/02/2018 05:30
Mostly Cloudy
Mostly Cloudy
 Viento del ENE
Viento: ENE 11 km/h
Temperatura: 7°C
Wind Chill: 5°C
Rocío: 3°C
Humedad: 76%
Barómetro: 1019 hPa
Nubosidad: Mostly Cloudy
Visibilidad: 10 km
Cloud details: Mostly Cloudy 671 m
2018/02/21 04:30 LEST 210430Z 06006KT 020V140 9999 BKN022 07/03 Q1019 NOSIG
 
LEZL - Sevilla
Actualización: 21/02/2018 05:30
Despejado
Despejado
 Viento del varies
Viento: varies 4 km/h
Temperatura: 8°C
Rocío: 4°C
Humedad: 76%
Barómetro: 1011 hPa
Resumen: Despejado
Visibilidad: greater than 10 km
2018/02/21 04:30 LEZL 210430Z VRB02KT CAVOK 08/04 Q1011 NOSIG
GCXO - Tenerife
Actualización: 21/02/2018 05:30
Cubierto
Cubierto
 Viento del NO
Viento: NO 22 km/h
Temperatura: 11°C
Rocío: 10°C
Humedad: 94%
Barómetro: 1016 hPa
Nubosidad: Cubierto
Visibilidad: 9 km
Cloud details: Mostly Cloudy 91 m
Cubierto 244 m
2018/02/21 04:30 GCXO 210430Z AUTO 31012KT 280V340 9000 BKN003/// OVC008/// 11/10 Q1016
GCTS - Tenerife-Sur
Actualización: 21/02/2018 05:30
Few Clouds
Few Clouds
 Viento del ENE
Viento: ENE 9 km/h
Temperatura: 14°C
Rocío: 8°C
Humedad: 67%
Barómetro: 1015 hPa
Nubosidad: Few Clouds
Visibilidad: 10 km
Cloud details: Few Clouds 914 m
2018/02/21 04:30 GCTS 210430Z 06005KT 9999 FEW030 14/08 Q1015 NOSIG
 
LEVC - Valencia
Actualización: 21/02/2018 05:30
Few Clouds
Few Clouds
 Viento del O
Viento: O 9 km/h
Temperatura: 8°C
Wind Chill: 6°C
Rocío: 2°C
Humedad: 66%
Barómetro: 1008 hPa
Nubosidad: Few Clouds
Visibilidad: 10 km
Cloud details: Few Clouds 1067 m
2018/02/21 04:30 LEVC 210430Z 28005KT 9999 FEW035 08/02 Q1008 NOSIG
LEVD - Valladolid
Actualización: 20/02/2018 21:30
NO Actualizado
Few Clouds
Few Clouds
 Viento del NE
Viento: NE 6 km/h
Temperatura: 3°C
Rocío: 0°C
Humedad: 81%
Barómetro: 1019 hPa
Nubosidad: Few Clouds
Visibilidad: 10 km
Cloud details: Few Clouds 1280 m
2018/02/20 20:30 LEVD 202030Z 04003KT 010V080 9999 FEW042 03/M00 Q1019
LEVX - Vigo
Actualización: 21/02/2018 05:30
Despejado
Despejado
 Viento del NNE
Viento: NNE 9 km/h
Temperatura: 7°C
Wind Chill: 6°C
Rocío: 4°C
Humedad: 81%
Barómetro: 1017 hPa
Resumen: Despejado
Visibilidad: greater than 10 km
2018/02/21 04:30 LEVX 210430Z 02005KT CAVOK 07/04 Q1017 NOSIG
 
LEVT - Vitoria
Actualización: 21/02/2018 05:30
Light snow, LLuvia, Muy nuboso
Light snow, LLuvia, Muy nuboso
 Viento del N
Viento: N 31 km/h, Racha: 50 km/h
Temperatura: 4°C
Wind Chill: -2°C
Rocío: 2°C
Humedad: 87%
Barómetro: 1016 hPa
Resumen: Light snow, LLuvia
Nubosidad: Mostly Cloudy
Visibilidad: 8 km
Cloud details: Partly Cloudy 427 m
Mostly Cloudy 1067 m
2018/02/21 04:30 LEVT 210430Z 36017G27KT 8000 -SNRA SCT014 BKN035 04/02 Q1016
LEZG - Zaragoza
Actualización: 21/02/2018 05:30
Partly Cloudy
Partly Cloudy
 Viento del ONO
Viento: ONO 33 km/h
Temperatura: 8°C
Wind Chill: 3°C
Rocío: 4°C
Humedad: 76%
Barómetro: 1011 hPa
Nubosidad: Partly Cloudy
Visibilidad: 10 km
Cloud details: Partly Cloudy 1219 m
2018/02/21 04:30 LEZG 210430Z 30018KT 9999 SCT040 08/04 Q1011

La estación de MeteoMurcia.com, publica sus datos en los siguientes proyectos:

Meteoclimatic www.awekas.at

W3Counter
Web Analytics